createdAt,value
2023-02-28T00:00:56.054Z,-1.86
2023-02-28T00:01:55.979Z,-1.88
2023-02-28T00:02:55.875Z,-1.86
2023-02-28T00:03:55.785Z,-1.83
2023-02-28T00:04:55.704Z,-1.84
2023-02-28T00:05:55.612Z,-1.84
2023-02-28T00:06:55.531Z,-1.83
2023-02-28T00:07:55.438Z,-1.83
2023-02-28T00:08:55.364Z,-1.86
2023-02-28T00:09:55.265Z,-1.81
2023-02-28T00:10:55.174Z,-1.94
2023-02-28T00:11:55.087Z,-1.88
2023-02-28T00:12:54.997Z,-1.92
2023-02-28T00:13:54.911Z,-1.83
2023-02-28T00:14:54.820Z,-1.95
2023-02-28T00:15:54.739Z,-1.97
2023-02-28T00:16:54.683Z,-1.92
2023-02-28T00:17:54.563Z,-1.97
2023-02-28T00:18:54.474Z,-1.92
2023-02-28T00:19:54.381Z,-1.92
2023-02-28T00:20:54.295Z,-1.92
2023-02-28T00:21:54.201Z,-1.99
2023-02-28T00:22:54.124Z,-2.06
2023-02-28T00:23:54.028Z,-1.95
2023-02-28T00:24:53.951Z,-1.98
2023-02-28T00:25:53.853Z,-1.91
2023-02-28T00:26:53.767Z,-1.94
2023-02-28T00:27:53.681Z,-1.94
2023-02-28T00:28:53.599Z,-1.94
2023-02-28T00:29:53.500Z,-1.89
2023-02-28T00:30:53.598Z,-1.92
2023-02-28T00:31:53.353Z,-1.89
2023-02-28T00:32:53.251Z,-1.86
2023-02-28T00:33:53.143Z,-1.89
2023-02-28T00:34:53.058Z,-1.92
2023-02-28T00:35:53.216Z,-1.98
2023-02-28T00:36:52.897Z,-1.98
2023-02-28T00:37:52.794Z,-1.88
2023-02-28T00:38:52.722Z,-1.92
2023-02-28T00:39:52.615Z,-1.97
2023-02-28T00:40:52.527Z,-1.94
2023-02-28T00:41:52.437Z,-1.92
2023-02-28T00:42:52.351Z,-1.92
2023-02-28T00:43:52.266Z,-1.88
2023-02-28T00:44:52.180Z,-1.89
2023-02-28T00:45:52.126Z,-1.91
2023-02-28T00:46:51.997Z,-1.94
2023-02-28T00:47:51.904Z,-1.94
2023-02-28T00:48:51.820Z,-1.98
2023-02-28T00:49:51.735Z,-1.94
2023-02-28T00:50:51.649Z,-1.94
2023-02-28T00:51:51.565Z,-1.83
2023-02-28T00:52:51.467Z,-1.97
2023-02-28T00:53:51.378Z,-1.92
2023-02-28T00:54:51.288Z,-1.77
2023-02-28T00:55:51.209Z,-1.86
2023-02-28T00:56:51.120Z,-1.86
2023-02-28T00:57:51.026Z,-1.84
2023-02-28T00:58:50.940Z,-1.78
2023-02-28T00:59:50.856Z,-1.78
2023-02-28T01:00:50.770Z,-1.76
2023-02-28T01:01:50.704Z,-1.71
2023-02-28T01:02:50.583Z,-1.76
2023-02-28T01:03:50.502Z,-1.73
2023-02-28T01:04:50.427Z,-1.76
2023-02-28T01:05:50.325Z,-1.77
2023-02-28T01:06:50.227Z,-1.76
2023-02-28T01:07:50.145Z,-1.73
2023-02-28T01:08:50.054Z,-1.70
2023-02-28T01:09:49.975Z,-1.63
2023-02-28T01:10:49.880Z,-1.70
2023-02-28T01:11:49.785Z,-1.68
2023-02-28T01:12:49.706Z,-1.68
2023-02-28T01:13:49.623Z,-1.76
2023-02-28T01:14:49.525Z,-1.70
2023-02-28T01:15:49.469Z,-1.71
2023-02-28T01:16:49.354Z,-1.77
2023-02-28T01:17:49.272Z,-1.71
2023-02-28T01:18:49.171Z,-1.73
2023-02-28T01:19:49.085Z,-1.76
2023-02-28T01:20:49.004Z,-1.71
2023-02-28T01:21:48.906Z,-1.76
2023-02-28T01:22:48.842Z,-1.84
2023-02-28T01:23:48.729Z,-1.76
2023-02-28T01:24:48.643Z,-1.76
2023-02-28T01:25:48.564Z,-1.78
2023-02-28T01:26:48.469Z,-1.74
2023-02-28T01:27:48.378Z,-1.78
2023-02-28T01:28:48.295Z,-1.80
2023-02-28T01:29:48.211Z,-1.66
2023-02-28T01:30:48.153Z,-1.73
2023-02-28T01:31:48.050Z,-1.76
2023-02-28T01:32:47.943Z,-1.78
2023-02-28T01:33:47.851Z,-1.74
2023-02-28T01:34:47.763Z,-1.73
2023-02-28T01:35:47.683Z,-1.76
2023-02-28T01:36:47.587Z,-1.73
2023-02-28T01:37:47.499Z,-1.77
2023-02-28T01:38:47.407Z,-1.70
2023-02-28T01:39:47.318Z,-1.74
2023-02-28T01:40:47.229Z,-1.70
2023-02-28T01:41:47.144Z,-1.74
2023-02-28T01:42:47.059Z,-1.77
2023-02-28T01:43:46.968Z,-1.74
2023-02-28T01:44:46.875Z,-1.73
2023-02-28T01:45:46.789Z,-1.74
2023-02-28T01:46:46.786Z,-1.74
2023-02-28T01:47:46.614Z,-1.73
2023-02-28T01:48:46.518Z,-1.83
2023-02-28T01:49:46.444Z,-1.77
2023-02-28T01:50:46.345Z,-1.74
2023-02-28T01:51:46.260Z,-1.74
2023-02-28T01:52:46.173Z,-1.73
2023-02-28T01:53:46.084Z,-1.77
2023-02-28T01:54:45.994Z,-1.70
2023-02-28T01:55:45.903Z,-1.70
2023-02-28T01:56:45.822Z,-1.83
2023-02-28T01:57:45.726Z,-1.78
2023-02-28T01:58:45.633Z,-1.81
2023-02-28T01:59:45.549Z,-1.84
2023-02-28T02:00:45.463Z,-1.84
2023-02-28T02:01:45.435Z,-1.74
2023-02-28T02:02:45.288Z,-1.84
2023-02-28T02:03:45.200Z,-1.78
2023-02-28T02:04:45.119Z,-1.81
2023-02-28T02:05:45.021Z,-1.84
2023-02-28T02:06:44.925Z,-1.83
2023-02-28T02:07:44.848Z,-1.86
2023-02-28T02:08:44.754Z,-1.89
2023-02-28T02:09:44.670Z,-1.84
2023-02-28T02:10:44.575Z,-1.88
2023-02-28T02:11:44.489Z,-1.99
2023-02-28T02:12:44.398Z,-1.98
2023-02-28T02:13:44.321Z,-1.95
2023-02-28T02:14:44.223Z,-1.99
2023-02-28T02:15:44.151Z,-1.91
2023-02-28T02:16:44.049Z,-2.01
2023-02-28T02:17:43.960Z,-2.06
2023-02-28T02:18:43.871Z,-1.86
2023-02-28T02:19:43.784Z,-1.92
2023-02-28T02:20:43.697Z,-1.94
2023-02-28T02:21:43.607Z,-1.86
2023-02-28T02:22:43.519Z,-1.98
2023-02-28T02:23:43.430Z,-1.91
2023-02-28T02:24:43.366Z,-1.88
2023-02-28T02:25:43.257Z,-1.94
2023-02-28T02:26:43.177Z,-1.88
2023-02-28T02:27:43.076Z,-1.97
2023-02-28T02:28:42.981Z,-1.97
2023-02-28T02:29:42.894Z,-1.89
2023-02-28T02:30:42.809Z,-1.91
2023-02-28T02:31:42.789Z,-1.89
2023-02-28T02:32:42.635Z,-1.94
2023-02-28T02:33:42.544Z,-1.95
2023-02-28T02:34:42.459Z,-1.95
2023-02-28T02:35:42.406Z,-2.04
2023-02-28T02:36:42.284Z,-1.92
2023-02-28T02:37:42.186Z,-2.04
2023-02-28T02:38:42.100Z,-2.01
2023-02-28T02:39:42.020Z,-2.06
2023-02-28T02:40:41.920Z,-2.12
2023-02-28T02:41:41.832Z,-2.09
2023-02-28T02:42:41.744Z,-2.02
2023-02-28T02:43:41.658Z,-2.12
2023-02-28T02:44:41.572Z,-2.06
2023-02-28T02:45:41.485Z,-2.15
2023-02-28T02:46:41.469Z,-2.02
2023-02-28T02:47:41.309Z,-1.98
2023-02-28T02:48:41.243Z,-1.99
2023-02-28T02:49:41.144Z,-2.02
2023-02-28T02:50:41.036Z,-1.99
2023-02-28T02:51:40.950Z,-2.04
2023-02-28T02:52:40.868Z,-2.06
2023-02-28T02:53:40.776Z,-2.12
2023-02-28T02:54:40.688Z,-2.01
2023-02-28T02:55:40.598Z,-2.09
2023-02-28T02:56:40.519Z,-2.09
2023-02-28T02:57:40.423Z,-2.10
2023-02-28T02:58:40.338Z,-2.15
2023-02-28T02:59:40.242Z,-2.10
2023-02-28T03:00:40.175Z,-2.10
2023-02-28T03:01:40.068Z,-2.13
2023-02-28T03:02:39.994Z,-2.15
2023-02-28T03:03:39.915Z,-2.20
2023-02-28T03:04:39.822Z,-2.13
2023-02-28T03:05:39.716Z,-2.13
2023-02-28T03:06:39.624Z,-2.10
2023-02-28T03:07:39.537Z,-2.10
2023-02-28T03:08:39.460Z,-2.15
2023-02-28T03:09:39.361Z,-2.12
2023-02-28T03:10:39.269Z,-2.16
2023-02-28T03:11:39.199Z,-2.06
2023-02-28T03:12:39.093Z,-2.13
2023-02-28T03:13:39.021Z,-2.15
2023-02-28T03:14:38.915Z,-2.13
2023-02-28T03:15:38.829Z,-2.10
2023-02-28T03:16:38.857Z,-2.13
2023-02-28T03:17:38.654Z,-2.20
2023-02-28T03:18:38.575Z,-2.12
2023-02-28T03:19:38.479Z,-2.19
2023-02-28T03:20:38.414Z,-2.10
2023-02-28T03:21:38.302Z,-2.12
2023-02-28T03:22:38.211Z,-2.17
2023-02-28T03:23:38.124Z,-2.13
2023-02-28T03:24:38.043Z,-2.13
2023-02-28T03:25:37.967Z,-2.16
2023-02-28T03:26:37.858Z,-2.13
2023-02-28T03:27:37.775Z,-2.12
2023-02-28T03:28:37.682Z,-2.13
2023-02-28T03:29:37.596Z,-2.16
2023-02-28T03:30:37.505Z,-2.17
2023-02-28T03:31:37.473Z,-2.17
2023-02-28T03:32:37.360Z,-2.20
2023-02-28T03:33:37.245Z,-2.10
2023-02-28T03:34:37.160Z,-2.17
2023-02-28T03:35:37.085Z,-2.17
2023-02-28T03:36:36.981Z,-2.15
2023-02-28T03:37:36.903Z,-2.19
2023-02-28T03:38:36.803Z,-2.13
2023-02-28T03:39:36.719Z,-2.15
2023-02-28T03:40:36.625Z,-2.15
2023-02-28T03:41:36.541Z,-2.07
2023-02-28T03:42:36.449Z,-2.27
2023-02-28T03:43:36.357Z,-2.13
2023-02-28T03:44:36.271Z,-2.12
2023-02-28T03:45:36.310Z,-2.12
2023-02-28T03:46:36.097Z,-2.12
2023-02-28T03:47:36.035Z,-2.22
2023-02-28T03:48:35.921Z,-2.04
2023-02-28T03:49:35.828Z,-2.12
2023-02-28T03:50:35.754Z,-2.17
2023-02-28T03:51:35.653Z,-2.06
2023-02-28T03:52:35.571Z,-2.12
2023-02-28T03:53:35.482Z,-2.23
2023-02-28T03:54:35.391Z,-2.12
2023-02-28T03:55:35.298Z,-2.07
2023-02-28T03:56:35.210Z,-2.07
2023-02-28T03:57:35.120Z,-2.09
2023-02-28T03:58:35.030Z,-2.19
2023-02-28T03:59:34.953Z,-2.13
2023-02-28T04:00:34.857Z,-2.13
2023-02-28T04:01:34.791Z,-2.23
2023-02-28T04:02:34.693Z,-2.04
2023-02-28T04:03:34.588Z,-2.06
2023-02-28T04:04:34.546Z,-2.15
2023-02-28T04:05:34.423Z,-2.07
2023-02-28T04:06:34.344Z,-2.16
2023-02-28T04:07:34.269Z,-2.20
2023-02-28T04:08:34.173Z,-2.17
2023-02-28T04:09:34.074Z,-2.12
2023-02-28T04:10:33.971Z,-2.20
2023-02-28T04:11:33.887Z,-2.23
2023-02-28T04:12:33.798Z,-2.17
2023-02-28T04:13:33.705Z,-2.07
2023-02-28T04:14:33.617Z,-2.13
2023-02-28T04:15:33.558Z,-2.19
2023-02-28T04:16:35.681Z,-2.12
2023-02-28T04:17:33.351Z,-2.12
2023-02-28T04:18:33.263Z,-2.16
2023-02-28T04:19:33.173Z,-2.15
2023-02-28T04:20:33.091Z,-2.15
2023-02-28T04:21:33.582Z,-2.07
2023-02-28T04:22:32.928Z,-2.15
2023-02-28T04:23:32.856Z,-2.07
2023-02-28T04:24:32.734Z,-2.16
2023-02-28T04:25:32.643Z,-2.23
2023-02-28T04:26:32.561Z,-2.09
2023-02-28T04:27:32.841Z,-2.10
2023-02-28T04:28:32.379Z,-2.13
2023-02-28T04:29:32.289Z,-2.22
2023-02-28T04:30:32.206Z,-2.10
2023-02-28T04:31:32.472Z,-2.13
2023-02-28T04:32:32.064Z,-2.20
2023-02-28T04:33:31.936Z,-2.12
2023-02-28T04:34:31.867Z,-2.07
2023-02-28T04:35:31.807Z,-2.13
2023-02-28T04:36:31.672Z,-2.10
2023-02-28T04:37:31.589Z,-2.23
2023-02-28T04:38:31.496Z,-2.13
2023-02-28T04:39:31.418Z,-2.16
2023-02-28T04:40:31.325Z,-2.10
2023-02-28T04:41:32.783Z,-2.13
2023-02-28T04:42:31.142Z,-2.25
2023-02-28T04:43:31.050Z,-2.13
2023-02-28T04:44:30.965Z,-2.12
2023-02-28T04:45:30.971Z,-2.12
2023-02-28T04:46:30.786Z,-2.22
2023-02-28T04:47:30.695Z,-2.17
2023-02-28T04:48:30.612Z,-2.15
2023-02-28T04:49:30.522Z,-2.12
2023-02-28T04:50:30.433Z,-2.12
2023-02-28T04:51:30.710Z,-2.20
2023-02-28T04:52:30.253Z,-2.15
2023-02-28T04:53:30.164Z,-2.07
2023-02-28T04:54:30.081Z,-2.12
2023-02-28T04:55:29.988Z,-2.10
2023-02-28T04:56:29.905Z,-2.04
2023-02-28T04:57:29.811Z,-2.12
2023-02-28T04:58:29.726Z,-2.13
2023-02-28T04:59:29.642Z,-2.16
2023-02-28T05:00:29.545Z,-2.12
2023-02-28T05:01:29.709Z,-2.04
2023-02-28T05:02:29.404Z,-2.13
2023-02-28T05:03:29.277Z,-2.09
2023-02-28T05:04:29.252Z,-2.07
2023-02-28T05:05:29.100Z,-2.15
2023-02-28T05:06:29.026Z,-2.02
2023-02-28T05:07:28.922Z,-2.12
2023-02-28T05:08:28.839Z,-2.15
2023-02-28T05:09:28.748Z,-2.16
2023-02-28T05:10:28.668Z,-2.02
2023-02-28T05:11:28.855Z,-2.16
2023-02-28T05:12:28.495Z,-2.10
2023-02-28T05:13:28.393Z,-2.07
2023-02-28T05:14:28.306Z,-2.15
2023-02-28T05:15:28.213Z,-2.27
2023-02-28T05:16:28.170Z,-2.10
2023-02-28T05:17:28.041Z,-2.13
2023-02-28T05:18:27.997Z,-2.15
2023-02-28T05:19:27.860Z,-2.10
2023-02-28T05:20:27.778Z,-2.12
2023-02-28T05:21:28.205Z,-2.12
2023-02-28T05:22:27.597Z,-2.07
2023-02-28T05:23:27.506Z,-2.15
2023-02-28T05:24:27.440Z,-2.19
2023-02-28T05:25:27.330Z,-2.19
2023-02-28T05:26:27.243Z,-2.17
2023-02-28T05:27:27.152Z,-2.13
2023-02-28T05:28:27.076Z,-2.25
2023-02-28T05:29:26.979Z,-2.25
2023-02-28T05:30:26.897Z,-2.27
2023-02-28T05:31:27.019Z,-2.32
2023-02-28T05:32:26.775Z,-2.34
2023-02-28T05:33:26.624Z,-2.36
2023-02-28T05:34:26.545Z,-2.34
2023-02-28T05:35:26.479Z,-2.36
2023-02-28T05:36:26.357Z,-2.32
2023-02-28T05:37:26.270Z,-2.35
2023-02-28T05:38:26.185Z,-2.42
2023-02-28T05:39:26.089Z,-2.36
2023-02-28T05:40:26.012Z,-2.38
2023-02-28T05:41:25.913Z,-2.38
2023-02-28T05:42:25.826Z,-2.32
2023-02-28T05:43:25.738Z,-2.46
2023-02-28T05:44:25.652Z,-2.45
2023-02-28T05:45:25.561Z,-2.45
2023-02-28T05:46:25.469Z,-2.47
2023-02-28T05:47:25.383Z,-2.54
2023-02-28T05:48:25.325Z,-2.53
2023-02-28T05:49:25.206Z,-2.50
2023-02-28T05:50:25.118Z,-2.56
2023-02-28T05:51:25.037Z,-2.57
2023-02-28T05:52:24.939Z,-2.59
2023-02-28T05:53:24.865Z,-2.65
2023-02-28T05:54:24.760Z,-2.60
2023-02-28T05:55:24.675Z,-2.67
2023-02-28T05:56:24.586Z,-2.62
2023-02-28T05:57:25.021Z,-2.54
2023-02-28T05:58:24.409Z,-2.57
2023-02-28T05:59:24.320Z,-2.62
2023-02-28T06:00:24.239Z,-2.54
2023-02-28T06:01:24.159Z,-2.64
2023-02-28T06:02:24.079Z,-2.62
2023-02-28T06:03:24.111Z,-2.59
2023-02-28T06:04:31.417Z,-2.65
2023-02-28T06:05:23.790Z,-2.60
2023-02-28T06:06:23.702Z,-2.59
2023-02-28T06:07:23.622Z,-2.65
2023-02-28T06:08:23.524Z,-2.64
2023-02-28T06:09:23.440Z,-2.59
2023-02-28T06:10:23.345Z,-2.57
2023-02-28T06:11:23.262Z,-2.62
2023-02-28T06:12:23.170Z,-2.64
2023-02-28T06:13:23.085Z,-2.57
2023-02-28T06:14:23.009Z,-2.60
2023-02-28T06:15:22.906Z,-2.57
2023-02-28T06:16:22.828Z,-2.67
2023-02-28T06:17:22.737Z,-2.57
2023-02-28T06:18:22.650Z,-2.57
2023-02-28T06:19:22.551Z,-2.65
2023-02-28T06:20:22.461Z,-2.49
2023-02-28T06:21:22.379Z,-2.56
2023-02-28T06:22:22.289Z,-2.52
2023-02-28T06:23:22.199Z,-2.54
2023-02-28T06:24:22.109Z,-2.57
2023-02-28T06:25:22.027Z,-2.46
2023-02-28T06:26:21.928Z,-2.46
2023-02-28T06:27:21.847Z,-2.52
2023-02-28T06:28:21.753Z,-2.46
2023-02-28T06:29:21.668Z,-2.50
2023-02-28T06:30:21.575Z,-2.47
2023-02-28T06:31:21.526Z,-2.32
2023-02-28T06:32:21.470Z,-2.35
2023-02-28T06:33:21.317Z,-2.41
2023-02-28T06:34:21.224Z,-2.35
2023-02-28T06:35:21.134Z,-2.30
2023-02-28T06:36:21.050Z,-2.35
2023-02-28T06:37:20.957Z,-2.38
2023-02-28T06:38:20.868Z,-2.30
2023-02-28T06:39:20.785Z,-2.38
2023-02-28T06:40:20.857Z,-2.34
2023-02-28T06:41:20.621Z,-2.35
2023-02-28T06:42:20.517Z,-2.34
2023-02-28T06:43:20.427Z,-2.38
2023-02-28T06:44:20.336Z,-2.25
2023-02-28T06:45:20.261Z,-2.28
2023-02-28T06:46:20.250Z,-2.23
2023-02-28T06:47:20.067Z,-2.20
2023-02-28T06:48:20.046Z,-2.16
2023-02-28T06:49:19.901Z,-2.19
2023-02-28T06:50:19.807Z,-2.23
2023-02-28T06:51:19.716Z,-2.12
2023-02-28T06:52:19.632Z,-2.10
2023-02-28T06:53:19.541Z,-2.04
2023-02-28T06:54:19.448Z,-2.13
2023-02-28T06:55:19.361Z,-2.06
2023-02-28T06:56:19.278Z,-2.07
2023-02-28T06:57:19.191Z,-2.04
2023-02-28T06:58:19.095Z,-1.92
2023-02-28T06:59:19.008Z,-1.94
2023-02-28T07:00:18.926Z,-1.84
2023-02-28T07:01:18.931Z,-1.78
2023-02-28T07:02:18.740Z,-1.81
2023-02-28T07:03:18.656Z,-1.74
2023-02-28T07:04:18.597Z,-1.68
2023-02-28T07:05:18.474Z,-1.65
2023-02-28T07:06:18.384Z,-1.62
2023-02-28T07:07:18.301Z,-1.55
2023-02-28T07:08:18.208Z,-1.53
2023-02-28T07:09:18.126Z,-1.48
2023-02-28T07:10:20.171Z,-1.47
2023-02-28T07:11:17.940Z,-1.44
2023-02-28T07:12:17.860Z,-1.41
2023-02-28T07:13:17.771Z,-1.35
2023-02-28T07:14:17.678Z,-1.27
2023-02-28T07:15:17.588Z,-1.29
2023-02-28T07:16:17.542Z,-1.35
2023-02-28T07:17:17.411Z,-1.27
2023-02-28T07:18:17.332Z,-1.16
2023-02-28T07:19:17.237Z,-1.08
2023-02-28T07:20:17.151Z,-1.17
2023-02-28T07:21:17.073Z,-1.02
2023-02-28T07:22:16.969Z,-1.03
2023-02-28T07:23:16.886Z,-0.96
2023-02-28T07:24:16.801Z,-0.86
2023-02-28T07:25:16.703Z,-0.74
2023-02-28T07:26:16.629Z,-0.65
2023-02-28T07:27:16.529Z,-0.41
2023-02-28T07:28:16.440Z,-0.37
2023-02-28T07:29:16.352Z,-0.33
2023-02-28T07:30:16.262Z,-0.37
2023-02-28T07:31:16.212Z,-0.19
2023-02-28T07:32:16.191Z,-0.14
2023-02-28T07:33:16.054Z,-0.04
2023-02-28T07:34:15.912Z,0.06
2023-02-28T07:35:15.823Z,0.10
2023-02-28T07:36:15.736Z,0.22
2023-02-28T07:37:15.649Z,0.28
2023-02-28T07:38:15.560Z,0.43
2023-02-28T07:39:15.485Z,0.52
2023-02-28T07:40:15.388Z,0.62
2023-02-28T07:41:15.304Z,0.80
2023-02-28T07:42:15.215Z,0.87
2023-02-28T07:43:15.127Z,0.87
2023-02-28T07:44:15.041Z,0.97
2023-02-28T07:45:14.954Z,1.02
2023-02-28T07:46:14.885Z,1.15
2023-02-28T07:47:14.779Z,1.16
2023-02-28T07:48:14.688Z,1.25
2023-02-28T07:49:14.608Z,1.30
2023-02-28T07:50:14.518Z,1.41
2023-02-28T07:51:14.437Z,1.55
2023-02-28T07:52:14.352Z,1.48
2023-02-28T07:53:14.263Z,1.58
2023-02-28T07:54:14.175Z,1.62
2023-02-28T07:55:14.083Z,1.61
2023-02-28T07:56:13.997Z,1.62
2023-02-28T07:57:13.909Z,1.56
2023-02-28T07:58:13.825Z,1.50
2023-02-28T07:59:13.736Z,1.65
2023-02-28T08:00:13.711Z,1.61
2023-02-28T08:01:13.562Z,1.73
2023-02-28T08:02:13.493Z,1.80
2023-02-28T08:03:13.391Z,1.84
2023-02-28T08:04:13.300Z,1.94
2023-02-28T08:05:13.248Z,1.99
2023-02-28T08:06:13.125Z,2.12
2023-02-28T08:07:13.047Z,2.21
2023-02-28T08:08:12.965Z,2.24
2023-02-28T08:09:12.871Z,2.23
2023-02-28T08:10:12.783Z,2.37
2023-02-28T08:11:12.692Z,2.38
2023-02-28T08:12:12.612Z,2.56
2023-02-28T08:13:12.523Z,2.71
2023-02-28T08:14:12.433Z,2.77
2023-02-28T08:15:12.368Z,2.93
2023-02-28T08:16:12.310Z,2.89
2023-02-28T08:17:12.177Z,2.71
2023-02-28T08:18:12.089Z,2.68
2023-02-28T08:19:12.003Z,2.81
2023-02-28T08:20:11.927Z,2.78
2023-02-28T08:21:11.850Z,2.88
2023-02-28T08:22:11.741Z,2.81
2023-02-28T08:23:11.661Z,2.81
2023-02-28T08:24:11.576Z,2.84
2023-02-28T08:25:11.481Z,3.06
2023-02-28T08:26:11.399Z,2.96
2023-02-28T08:27:11.313Z,3.16
2023-02-28T08:28:11.230Z,3.11
2023-02-28T08:29:11.144Z,3.35
2023-02-28T08:30:11.057Z,3.51
2023-02-28T08:31:11.007Z,3.54
2023-02-28T08:32:23.744Z,3.59
2023-02-28T08:33:10.851Z,3.69
2023-02-28T08:34:10.708Z,3.75
2023-02-28T08:35:10.625Z,3.75
2023-02-28T08:36:10.596Z,3.83
2023-02-28T08:37:10.458Z,3.92
2023-02-28T08:38:10.365Z,4.00
2023-02-28T08:39:10.292Z,4.01
2023-02-28T08:40:10.203Z,3.97
2023-02-28T08:41:10.134Z,3.61
2023-02-28T08:42:10.024Z,3.69
2023-02-28T08:43:09.936Z,3.86
2023-02-28T08:44:09.871Z,3.84
2023-02-28T08:45:09.765Z,4.01
2023-02-28T08:46:09.705Z,4.08
2023-02-28T08:47:09.597Z,4.20
2023-02-28T08:48:09.510Z,4.30
2023-02-28T08:49:09.425Z,4.34
2023-02-28T08:50:09.334Z,4.38
2023-02-28T08:51:09.257Z,4.32
2023-02-28T08:52:09.168Z,4.30
2023-02-28T08:53:09.078Z,4.30
2023-02-28T08:54:08.995Z,4.29
2023-02-28T08:55:08.915Z,4.11
2023-02-28T08:56:08.834Z,3.94
2023-02-28T08:57:08.741Z,3.72
2023-02-28T08:58:08.661Z,3.65
2023-02-28T08:59:08.574Z,3.61
2023-02-28T09:00:08.481Z,3.61
2023-02-28T09:01:08.461Z,3.47
2023-02-28T09:02:08.310Z,3.62
2023-02-28T09:03:08.234Z,3.74
2023-02-28T09:04:08.135Z,3.71
2023-02-28T09:05:08.054Z,3.62
2023-02-28T09:06:07.982Z,3.50
2023-02-28T09:07:07.886Z,3.48
2023-02-28T09:08:07.799Z,3.56
2023-02-28T09:09:07.719Z,3.71
2023-02-28T09:10:07.636Z,3.97
2023-02-28T09:11:07.544Z,4.04
2023-02-28T09:12:07.465Z,4.20
2023-02-28T09:13:07.373Z,4.41
2023-02-28T09:14:07.288Z,4.56
2023-02-28T09:15:07.211Z,4.41
2023-02-28T09:16:07.127Z,4.34
2023-02-28T09:17:07.053Z,4.52
2023-02-28T09:18:06.948Z,4.55
2023-02-28T09:19:06.865Z,4.46
2023-02-28T09:20:06.783Z,4.46
2023-02-28T09:21:06.703Z,4.40
2023-02-28T09:22:06.609Z,4.34
2023-02-28T09:23:06.535Z,4.15
2023-02-28T09:24:06.438Z,4.11
2023-02-28T09:25:06.357Z,4.02
2023-02-28T09:26:06.272Z,4.11
2023-02-28T09:27:06.789Z,4.05
2023-02-28T09:28:06.117Z,4.02
2023-02-28T09:29:06.019Z,4.22
2023-02-28T09:30:05.932Z,4.30
2023-02-28T09:31:06.036Z,4.54
2023-02-28T09:32:05.822Z,4.66
2023-02-28T09:33:05.682Z,4.88
2023-02-28T09:34:05.606Z,5.21
2023-02-28T09:35:05.517Z,5.50
2023-02-28T09:36:05.474Z,5.31
2023-02-28T09:37:05.413Z,5.29
2023-02-28T09:38:05.255Z,5.42
2023-02-28T09:39:05.182Z,5.44
2023-02-28T09:40:05.093Z,5.49
2023-02-28T09:41:05.008Z,5.62
2023-02-28T09:42:04.919Z,5.56
2023-02-28T09:43:04.844Z,5.80
2023-02-28T09:44:04.770Z,5.77
2023-02-28T09:45:04.667Z,5.88
2023-02-28T09:46:04.641Z,5.86
2023-02-28T09:47:04.511Z,5.93
2023-02-28T09:48:04.430Z,6.04
2023-02-28T09:49:04.361Z,6.13
2023-02-28T09:50:04.282Z,6.22
2023-02-28T09:51:04.163Z,5.92
2023-02-28T09:52:04.095Z,5.81
2023-02-28T09:53:03.996Z,5.77
2023-02-28T09:54:03.920Z,5.83
2023-02-28T09:55:03.835Z,5.93
2023-02-28T09:56:03.744Z,5.97
2023-02-28T09:57:03.664Z,6.08
2023-02-28T09:58:03.596Z,6.03
2023-02-28T09:59:03.502Z,6.03
2023-02-28T10:00:03.444Z,6.17
2023-02-28T10:01:03.345Z,6.29
2023-02-28T10:02:03.242Z,6.30
2023-02-28T10:03:03.156Z,6.33
2023-02-28T10:04:03.079Z,6.29
2023-02-28T10:05:03.077Z,6.34
2023-02-28T10:06:02.906Z,6.34
2023-02-28T10:07:02.825Z,6.36
2023-02-28T10:08:02.755Z,6.42
2023-02-28T10:09:02.657Z,6.39
2023-02-28T10:10:02.578Z,6.62
2023-02-28T10:11:02.490Z,6.68
2023-02-28T10:12:02.412Z,6.72
2023-02-28T10:13:02.323Z,6.91
2023-02-28T10:14:02.306Z,6.99
2023-02-28T10:15:02.157Z,6.91
2023-02-28T10:16:02.156Z,7.01
2023-02-28T10:17:01.997Z,6.90
2023-02-28T10:19:01.822Z,7.05
2023-02-28T10:20:01.748Z,7.20
2023-02-28T10:21:01.664Z,7.26
2023-02-28T10:22:01.577Z,7.31
2023-02-28T10:23:01.493Z,7.19
2023-02-28T10:24:01.410Z,7.11
2023-02-28T10:25:02.239Z,7.19
2023-02-28T10:26:01.248Z,7.12
2023-02-28T10:27:01.163Z,7.13
2023-02-28T10:28:01.079Z,7.02
2023-02-28T10:29:00.991Z,6.98
2023-02-28T10:30:00.913Z,7.03
2023-02-28T10:31:00.893Z,7.08
2023-02-28T10:32:00.779Z,7.20
2023-02-28T10:33:00.759Z,7.24
2023-02-28T10:34:00.579Z,7.34
2023-02-28T10:35:00.494Z,7.39
2023-02-28T10:36:00.462Z,7.44
2023-02-28T10:37:00.339Z,7.37
2023-02-28T10:38:00.251Z,7.29
2023-02-28T10:39:00.176Z,7.34
2023-02-28T10:40:00.110Z,7.53
2023-02-28T10:41:00.000Z,7.49
2023-02-28T10:41:59.937Z,7.52
2023-02-28T10:42:59.839Z,7.55
2023-02-28T10:43:59.759Z,7.62
2023-02-28T10:44:59.675Z,7.68
2023-02-28T10:45:59.679Z,7.62
2023-02-28T10:46:59.506Z,7.55
2023-02-28T10:47:59.432Z,7.42
2023-02-28T10:48:59.339Z,7.49
2023-02-28T10:49:59.259Z,7.39
2023-02-28T10:50:59.174Z,7.13
2023-02-28T10:51:59.102Z,7.16
2023-02-28T10:52:59.012Z,6.96
2023-02-28T10:54:01.838Z,6.98
2023-02-28T10:54:58.855Z,6.91
2023-02-28T10:55:58.766Z,6.98
2023-02-28T10:56:58.680Z,6.91
2023-02-28T10:57:58.600Z,6.96
2023-02-28T10:58:58.514Z,6.93
2023-02-28T10:59:58.432Z,6.70
2023-02-28T11:00:58.349Z,6.68
2023-02-28T11:01:58.307Z,6.60
2023-02-28T11:02:58.183Z,6.66
2023-02-28T11:03:58.103Z,6.57
2023-02-28T11:04:58.066Z,6.52
2023-02-28T11:05:57.942Z,6.54
2023-02-28T11:06:57.856Z,6.44
2023-02-28T11:07:57.773Z,6.42
2023-02-28T11:08:57.690Z,6.33
2023-02-28T11:09:57.604Z,6.36
2023-02-28T11:10:57.527Z,6.42
2023-02-28T11:11:57.456Z,6.45
2023-02-28T11:12:59.120Z,6.75
2023-02-28T11:13:57.275Z,6.93
2023-02-28T11:14:57.196Z,6.94
2023-02-28T11:15:57.141Z,6.94
2023-02-28T11:16:57.026Z,7.12
2023-02-28T11:17:56.944Z,7.19
2023-02-28T11:18:56.859Z,7.26
2023-02-28T11:19:56.783Z,7.23
2023-02-28T11:20:56.701Z,7.30
2023-02-28T11:21:56.664Z,7.34
2023-02-28T11:22:56.528Z,7.44
2023-02-28T11:23:56.452Z,7.52
2023-02-28T11:24:56.364Z,7.60
2023-02-28T11:25:56.282Z,7.68
2023-02-28T11:26:56.199Z,7.57
2023-02-28T11:27:56.124Z,7.68
2023-02-28T11:28:56.038Z,7.64
2023-02-28T11:29:55.955Z,7.72
2023-02-28T11:30:55.945Z,7.67
2023-02-28T11:31:55.859Z,7.41
2023-02-28T11:32:55.787Z,7.41
2023-02-28T11:33:55.628Z,7.57
2023-02-28T11:34:55.540Z,7.59
2023-02-28T11:35:55.494Z,7.62
2023-02-28T11:36:55.373Z,7.68
2023-02-28T11:37:55.297Z,7.56
2023-02-28T11:38:55.211Z,7.42
2023-02-28T11:39:55.141Z,7.30
2023-02-28T11:40:55.045Z,7.17
2023-02-28T11:41:54.977Z,7.12
2023-02-28T11:42:54.887Z,7.11
2023-02-28T11:43:54.801Z,7.08
2023-02-28T11:44:54.728Z,7.27
2023-02-28T11:45:54.640Z,7.47
2023-02-28T11:46:54.619Z,7.62
2023-02-28T11:47:54.473Z,7.67
2023-02-28T11:48:54.390Z,7.88
2023-02-28T11:49:54.308Z,7.93
2023-02-28T11:50:54.226Z,7.93
2023-02-28T11:51:54.149Z,8.01
2023-02-28T11:52:54.069Z,8.00
2023-02-28T11:53:53.985Z,8.12
2023-02-28T11:54:53.900Z,8.01
2023-02-28T11:55:53.822Z,7.82
2023-02-28T11:56:53.738Z,7.63
2023-02-28T11:57:53.655Z,7.55
2023-02-28T11:58:53.574Z,7.52
2023-02-28T11:59:53.495Z,7.56
2023-02-28T12:00:53.416Z,7.73
2023-02-28T12:01:53.331Z,7.94
2023-02-28T12:02:53.473Z,7.72
2023-02-28T12:03:53.172Z,7.94
2023-02-28T12:04:53.090Z,7.96
2023-02-28T12:05:53.011Z,7.99
2023-02-28T12:06:52.927Z,8.07
2023-02-28T12:07:52.872Z,8.00
2023-02-28T12:08:52.762Z,7.99
2023-02-28T12:09:52.681Z,8.03
2023-02-28T12:10:52.607Z,8.12
2023-02-28T12:11:52.519Z,8.14
2023-02-28T12:12:52.434Z,8.25
2023-02-28T12:13:52.353Z,8.25
2023-02-28T12:14:52.270Z,8.27
2023-02-28T12:15:52.191Z,8.40
2023-02-28T12:16:52.114Z,8.40
2023-02-28T12:17:52.031Z,8.42
2023-02-28T12:18:51.963Z,8.39
2023-02-28T12:19:51.864Z,8.44
2023-02-28T12:20:51.790Z,8.58
2023-02-28T12:21:51.710Z,8.69
2023-02-28T12:22:51.621Z,8.65
2023-02-28T12:23:51.540Z,8.69
2023-02-28T12:24:51.465Z,8.80
2023-02-28T12:25:51.374Z,8.73
2023-02-28T12:26:51.293Z,8.93
2023-02-28T12:27:51.212Z,8.94
2023-02-28T12:28:51.127Z,8.97
2023-02-28T12:29:51.073Z,8.91
2023-02-28T12:30:50.964Z,8.82
2023-02-28T12:31:51.017Z,8.75
2023-02-28T12:32:50.849Z,8.66
2023-02-28T12:33:50.727Z,8.58
2023-02-28T12:34:50.636Z,8.60
2023-02-28T12:35:50.572Z,8.61
2023-02-28T12:36:50.473Z,8.73
2023-02-28T12:37:50.414Z,8.79
2023-02-28T12:38:50.308Z,8.91
2023-02-28T12:39:51.082Z,8.85
2023-02-28T12:40:50.153Z,8.95
2023-02-28T12:41:50.068Z,9.02
2023-02-28T12:42:49.983Z,9.00
2023-02-28T12:43:49.907Z,9.00
2023-02-28T12:44:49.822Z,8.97
2023-02-28T12:45:50.052Z,8.98
2023-02-28T12:46:49.687Z,8.91
2023-02-28T12:47:49.580Z,8.73
2023-02-28T12:48:49.500Z,8.43
2023-02-28T12:49:49.414Z,8.17
2023-02-28T12:50:49.340Z,8.00
2023-02-28T12:51:49.256Z,7.60
2023-02-28T12:52:49.169Z,7.59
2023-02-28T12:53:49.090Z,7.60
2023-02-28T12:54:49.022Z,7.68
2023-02-28T12:55:48.929Z,7.93
2023-02-28T12:56:48.868Z,8.01
2023-02-28T12:57:48.778Z,8.12
2023-02-28T12:58:48.692Z,7.96
2023-02-28T12:59:48.606Z,8.00
2023-02-28T13:00:48.555Z,8.17
2023-02-28T13:01:48.446Z,8.19
2023-02-28T13:02:48.364Z,8.25
2023-02-28T13:03:48.291Z,8.34